createdAt,value
2023-04-27T00:00:33.634Z,2.10
2023-04-27T00:03:00.178Z,2.30
2023-04-27T00:05:26.736Z,1.73
2023-04-27T00:07:53.099Z,2.10
2023-04-27T00:10:19.422Z,2.40
2023-04-27T00:12:45.986Z,2.03
2023-04-27T00:15:12.250Z,2.10
2023-04-27T00:17:38.567Z,2.40
2023-04-27T00:20:06.135Z,2.30
2023-04-27T00:22:32.458Z,2.00
2023-04-27T00:24:58.696Z,2.10
2023-04-27T00:27:25.189Z,2.07
2023-04-27T00:29:51.449Z,2.00
2023-04-27T00:32:17.679Z,2.00
2023-04-27T00:34:43.959Z,1.90
2023-04-27T00:37:10.286Z,2.10
2023-04-27T00:39:36.598Z,2.30
2023-04-27T00:42:03.805Z,2.20
2023-04-27T00:44:30.189Z,2.20
2023-04-27T00:46:58.209Z,2.23
2023-04-27T00:49:26.165Z,1.93
2023-04-27T00:51:52.419Z,2.13
2023-04-27T00:54:20.233Z,2.10
2023-04-27T00:56:52.706Z,2.17
2023-04-27T00:59:19.428Z,2.17
2023-04-27T01:01:46.779Z,1.93
2023-04-27T01:04:13.303Z,2.30
2023-04-27T01:06:39.664Z,2.47
2023-04-27T01:09:06.240Z,2.27
2023-04-27T01:11:33.164Z,2.43
2023-04-27T01:14:03.128Z,2.30
2023-04-27T01:16:29.419Z,2.27
2023-04-27T01:18:55.718Z,2.43
2023-04-27T01:21:21.994Z,2.20
2023-04-27T01:23:48.285Z,2.13
2023-04-27T01:26:16.455Z,2.43
2023-04-27T01:28:43.218Z,2.33
2023-04-27T01:31:12.840Z,2.03
2023-04-27T01:33:39.511Z,2.23
2023-04-27T01:36:06.320Z,2.10
2023-04-27T01:38:32.942Z,2.47
2023-04-27T01:41:03.110Z,2.23
2023-04-27T01:43:29.692Z,2.13
2023-04-27T01:45:56.066Z,2.30
2023-04-27T01:48:22.502Z,2.50
2023-04-27T01:50:48.811Z,3.00
2023-04-27T01:53:15.082Z,2.10
2023-04-27T01:55:41.966Z,2.20
2023-04-27T01:58:08.284Z,2.40
2023-04-27T02:00:34.517Z,2.37
2023-04-27T02:03:01.725Z,2.23
2023-04-27T02:05:28.077Z,2.20
2023-04-27T02:07:54.340Z,2.30
2023-04-27T02:10:22.230Z,2.07
2023-04-27T02:12:48.699Z,2.20
2023-04-27T02:15:15.021Z,2.20
2023-04-27T02:17:41.336Z,2.77
2023-04-27T02:20:07.954Z,2.60
2023-04-27T02:22:34.293Z,2.90
2023-04-27T02:25:00.689Z,2.23
2023-04-27T02:27:26.956Z,2.70
2023-04-27T02:29:53.847Z,2.50
2023-04-27T02:32:20.435Z,3.20
2023-04-27T02:34:46.705Z,2.80
2023-04-27T02:37:12.954Z,2.80
2023-04-27T02:39:39.189Z,2.20
2023-04-27T02:42:05.501Z,2.57
2023-04-27T02:44:31.743Z,2.43
2023-04-27T02:46:58.071Z,2.50
2023-04-27T02:49:24.361Z,2.63
2023-04-27T02:51:50.646Z,2.83
2023-04-27T02:54:17.043Z,2.93
2023-04-27T02:56:43.287Z,3.20
2023-04-27T02:59:09.625Z,3.13
2023-04-27T03:01:36.538Z,2.90
2023-04-27T03:04:03.247Z,2.57
2023-04-27T03:06:30.052Z,2.47
2023-04-27T03:08:56.331Z,2.70
2023-04-27T03:11:22.631Z,2.53
2023-04-27T03:13:48.920Z,2.77
2023-04-27T03:16:15.234Z,2.50
2023-04-27T03:18:41.632Z,2.53
2023-04-27T03:21:11.483Z,2.40
2023-04-27T03:23:38.283Z,2.37
2023-04-27T03:26:08.432Z,2.53
2023-04-27T03:28:35.165Z,2.73
2023-04-27T03:31:04.464Z,2.67
2023-04-27T03:33:30.756Z,2.77
2023-04-27T03:35:57.519Z,2.67
2023-04-27T03:38:24.510Z,2.87
2023-04-27T03:40:51.302Z,2.50
2023-04-27T03:43:17.933Z,2.17
2023-04-27T03:45:44.231Z,2.63
2023-04-27T03:48:10.544Z,2.73
2023-04-27T03:50:36.818Z,2.57
2023-04-27T03:53:03.202Z,3.00
2023-04-27T03:55:29.493Z,2.80
2023-04-27T03:57:55.950Z,2.67
2023-04-27T04:00:22.399Z,2.47
2023-04-27T04:02:48.844Z,2.70
2023-04-27T04:05:15.425Z,2.50
2023-04-27T04:07:41.899Z,3.10
2023-04-27T04:10:08.513Z,2.80
2023-04-27T04:12:34.896Z,2.57
2023-04-27T04:15:01.294Z,2.60
2023-04-27T04:17:27.548Z,2.90
2023-04-27T04:19:53.797Z,2.80
2023-04-27T04:22:20.084Z,2.53
2023-04-27T04:24:47.291Z,2.90
2023-04-27T04:27:18.422Z,2.70
2023-04-27T04:29:44.661Z,3.30
2023-04-27T04:32:12.273Z,2.50
2023-04-27T04:34:38.492Z,2.50
2023-04-27T04:37:05.424Z,2.43
2023-04-27T04:39:33.251Z,2.97
2023-04-27T04:41:59.606Z,2.60
2023-04-27T04:44:25.919Z,2.57
2023-04-27T04:46:52.267Z,2.93
2023-04-27T04:49:18.577Z,2.73
2023-04-27T04:51:45.564Z,2.57
2023-04-27T04:54:11.855Z,2.97
2023-04-27T04:56:38.111Z,2.63
2023-04-27T04:59:04.392Z,2.90
2023-04-27T05:01:31.180Z,3.40
2023-04-27T05:03:57.597Z,3.03
2023-04-27T05:06:23.928Z,3.00
2023-04-27T05:08:50.314Z,3.63
2023-04-27T05:11:16.534Z,2.90
2023-04-27T05:13:42.870Z,3.20
2023-04-27T05:16:09.278Z,3.00
2023-04-27T05:18:36.167Z,3.10
2023-04-27T05:21:02.482Z,3.00
2023-04-27T05:23:28.715Z,2.93
2023-04-27T05:25:54.997Z,3.03
2023-04-27T05:28:21.458Z,3.00
2023-04-27T05:30:47.786Z,3.13
2023-04-27T05:33:14.025Z,2.90
2023-04-27T05:35:40.293Z,2.90
2023-04-27T05:38:06.579Z,2.60
2023-04-27T05:40:32.819Z,3.07
2023-04-27T05:43:01.815Z,2.70
2023-04-27T05:45:28.065Z,2.37
2023-04-27T05:47:54.346Z,2.40
2023-04-27T05:50:20.633Z,2.43
2023-04-27T05:52:47.030Z,3.03
2023-04-27T05:55:13.320Z,2.70
2023-04-27T05:57:40.304Z,2.90
2023-04-27T06:00:10.354Z,2.97
2023-04-27T06:02:36.749Z,2.47
2023-04-27T06:05:03.786Z,2.50
2023-04-27T06:07:30.583Z,2.50
2023-04-27T06:09:56.884Z,2.70
2023-04-27T06:12:23.115Z,2.60
2023-04-27T06:14:49.430Z,2.70
2023-04-27T06:17:15.695Z,2.33
2023-04-27T06:19:41.967Z,2.33
2023-04-27T06:22:09.587Z,2.67
2023-04-27T06:24:36.534Z,2.27
2023-04-27T06:27:02.832Z,2.17
2023-04-27T06:29:29.089Z,2.07
2023-04-27T06:31:55.397Z,2.10
2023-04-27T06:34:21.680Z,1.90
2023-04-27T06:36:47.958Z,1.83
2023-04-27T06:39:14.460Z,1.90
2023-04-27T06:41:40.877Z,1.67
2023-04-27T06:44:07.402Z,1.70
2023-04-27T06:46:33.733Z,1.90
2023-04-27T06:49:00.019Z,1.83
2023-04-27T06:51:26.753Z,1.83
2023-04-27T06:53:55.424Z,1.70
2023-04-27T06:56:22.399Z,1.75
2023-04-27T06:58:48.650Z,1.60
2023-04-27T07:01:14.963Z,2.00
2023-04-27T07:03:41.669Z,1.63
2023-04-27T07:06:08.076Z,1.67
2023-04-27T07:08:34.341Z,1.88
2023-04-27T07:11:00.620Z,1.77
2023-04-27T07:13:26.836Z,1.30
2023-04-27T07:15:59.284Z,1.70
2023-04-27T07:18:27.987Z,1.70
2023-04-27T07:20:54.772Z,1.77
2023-04-27T07:23:21.084Z,1.63
2023-04-27T07:25:47.396Z,1.90
2023-04-27T07:28:13.657Z,1.42
2023-04-27T07:30:40.565Z,1.90
2023-04-27T07:33:07.239Z,1.60
2023-04-27T07:35:33.628Z,1.63
2023-04-27T07:38:01.838Z,1.63
2023-04-27T07:40:28.465Z,1.77
2023-04-27T07:42:55.157Z,1.55
2023-04-27T07:45:23.124Z,1.98
2023-04-27T07:47:50.716Z,2.30
2023-04-27T07:50:18.044Z,1.60
2023-04-27T07:52:44.295Z,1.70
2023-04-27T07:55:11.014Z,1.87
2023-04-27T07:57:37.240Z,2.30
2023-04-27T08:00:07.071Z,1.63
2023-04-27T08:02:34.676Z,2.00
2023-04-27T08:05:03.127Z,1.90
2023-04-27T08:07:30.225Z,2.20
2023-04-27T08:09:56.843Z,2.63
2023-04-27T08:12:23.114Z,1.87
2023-04-27T08:14:49.498Z,2.10
2023-04-27T08:17:16.927Z,1.90
2023-04-27T08:19:43.179Z,2.73
2023-04-27T08:22:09.488Z,2.00
2023-04-27T08:24:36.299Z,2.30
2023-04-27T08:27:03.502Z,1.97
2023-04-27T08:29:29.827Z,2.17
2023-04-27T08:31:58.586Z,3.87
2023-04-27T08:34:24.887Z,2.30
2023-04-27T08:36:51.510Z,2.23
2023-04-27T08:39:18.134Z,2.47
2023-04-27T08:41:44.654Z,2.93
2023-04-27T08:44:10.948Z,2.40
2023-04-27T08:46:37.666Z,2.33
2023-04-27T08:49:04.082Z,2.50
2023-04-27T08:51:32.218Z,2.20
2023-04-27T08:53:58.833Z,2.37
2023-04-27T08:56:25.818Z,2.30
2023-04-27T08:58:52.403Z,2.27
2023-04-27T09:01:18.708Z,2.60
2023-04-27T09:03:48.750Z,2.77
2023-04-27T09:06:15.672Z,2.37
2023-04-27T09:08:45.719Z,2.17
2023-04-27T09:11:12.353Z,2.43
2023-04-27T09:13:39.282Z,2.10
2023-04-27T09:16:05.848Z,2.30
2023-04-27T09:18:35.258Z,1.83
2023-04-27T09:21:01.549Z,2.00
2023-04-27T09:23:28.577Z,2.00
2023-04-27T09:25:56.522Z,2.10
2023-04-27T09:28:23.456Z,2.53
2023-04-27T09:30:54.389Z,2.03
2023-04-27T09:33:30.984Z,2.40
2023-04-27T09:35:58.358Z,2.17
2023-04-27T09:38:24.659Z,2.13
2023-04-27T09:40:51.545Z,2.00
2023-04-27T09:43:17.874Z,2.00
2023-04-27T09:45:44.203Z,2.20
2023-04-27T09:48:11.245Z,2.30
2023-04-27T09:50:38.349Z,1.97
2023-04-27T09:53:15.140Z,2.00
2023-04-27T09:55:44.128Z,1.97
2023-04-27T09:58:33.028Z,1.97
2023-04-27T10:01:19.705Z,2.00
2023-04-27T10:03:56.685Z,2.20
2023-04-27T10:06:41.944Z,1.73
2023-04-27T10:09:08.787Z,2.00
2023-04-27T10:11:47.784Z,1.87
2023-04-27T10:14:18.245Z,1.70
2023-04-27T10:16:51.316Z,1.67
2023-04-27T10:19:17.959Z,2.00
2023-04-27T10:22:03.773Z,1.70
2023-04-27T10:24:40.757Z,1.50
2023-04-27T10:27:08.814Z,1.80
2023-04-27T10:29:38.773Z,1.70
2023-04-27T10:32:08.855Z,1.80
2023-04-27T10:34:38.716Z,1.40
2023-04-27T10:37:09.045Z,1.77
2023-04-27T10:39:47.653Z,1.60
2023-04-27T10:42:15.050Z,1.67
2023-04-27T10:44:41.406Z,1.60
2023-04-27T10:47:15.094Z,2.10
2023-04-27T10:49:41.889Z,1.70
2023-04-27T10:52:08.329Z,2.23
2023-04-27T10:54:34.940Z,1.77
2023-04-27T10:57:03.996Z,1.80
2023-04-27T10:59:31.678Z,2.27
2023-04-27T11:01:58.116Z,1.80
2023-04-27T11:04:24.452Z,1.70
2023-04-27T11:06:51.156Z,2.00
2023-04-27T11:09:27.336Z,2.10
2023-04-27T11:11:53.603Z,1.90
2023-04-27T11:14:20.993Z,1.60
2023-04-27T11:16:47.852Z,1.93
2023-04-27T11:19:14.345Z,1.70
2023-04-27T11:21:41.373Z,1.50
2023-04-27T11:24:08.114Z,1.60
2023-04-27T11:26:34.414Z,1.63
2023-04-27T11:29:05.424Z,1.40
2023-04-27T11:31:47.728Z,1.37
2023-04-27T11:34:22.571Z,1.70
2023-04-27T11:37:10.757Z,1.43
2023-04-27T11:39:44.812Z,1.87
2023-04-27T11:42:24.520Z,1.57
2023-04-27T11:44:55.344Z,1.63
2023-04-27T11:47:22.770Z,2.00
2023-04-27T11:49:49.999Z,1.57
2023-04-27T11:52:16.386Z,1.70
2023-04-27T11:54:53.392Z,1.50
2023-04-27T11:57:26.953Z,1.17
2023-04-27T11:59:53.712Z,1.60
2023-04-27T12:02:22.039Z,1.50
2023-04-27T12:04:49.358Z,2.07
2023-04-27T12:07:15.819Z,1.30
2023-04-27T12:09:42.320Z,1.60
2023-04-27T12:12:08.783Z,1.87
2023-04-27T12:14:35.028Z,1.70
2023-04-27T12:17:01.435Z,1.70
2023-04-27T12:19:27.955Z,1.83
2023-04-27T12:21:55.082Z,1.40
2023-04-27T12:24:21.771Z,1.80
2023-04-27T12:26:48.322Z,1.63
2023-04-27T12:29:14.755Z,1.70
2023-04-27T12:31:41.343Z,1.60
2023-04-27T12:34:07.645Z,1.60
2023-04-27T12:36:33.878Z,1.50
2023-04-27T12:39:11.619Z,1.60
2023-04-27T12:41:37.879Z,1.30
2023-04-27T12:44:04.360Z,1.63
2023-04-27T12:46:31.139Z,1.43
2023-04-27T12:48:57.591Z,1.40
2023-04-27T12:51:23.977Z,1.53
2023-04-27T12:53:50.387Z,1.70
2023-04-27T12:56:16.620Z,1.70
2023-04-27T12:58:46.258Z,1.80
2023-04-27T13:01:15.296Z,2.10
2023-04-27T13:03:44.926Z,1.67
2023-04-27T13:06:12.032Z,1.50
2023-04-27T13:08:38.787Z,1.50
2023-04-27T13:11:05.108Z,1.60
2023-04-27T13:13:32.003Z,1.70
2023-04-27T13:15:58.364Z,1.50
2023-04-27T13:18:25.138Z,1.70
2023-04-27T13:20:51.462Z,1.60
2023-04-27T13:23:17.811Z,1.33
2023-04-27T13:25:44.065Z,1.43
2023-04-27T13:28:10.382Z,1.40
2023-04-27T13:30:36.669Z,1.60
2023-04-27T13:33:18.381Z,1.43
2023-04-27T13:35:48.648Z,1.40
2023-04-27T13:38:14.953Z,1.80
2023-04-27T13:40:41.255Z,1.70
2023-04-27T13:43:07.846Z,1.20
2023-04-27T13:45:34.159Z,1.10
2023-04-27T13:48:00.448Z,1.60
2023-04-27T13:50:26.712Z,1.50
2023-04-27T13:52:53.117Z,1.53
2023-04-27T13:55:19.451Z,1.67
2023-04-27T13:57:51.368Z,1.33
2023-04-27T14:00:18.333Z,1.23
2023-04-27T14:02:44.757Z,1.20
2023-04-27T14:05:11.207Z,1.30
2023-04-27T14:07:37.544Z,1.43
2023-04-27T14:10:04.359Z,1.10
2023-04-27T14:12:33.794Z,1.63
2023-04-27T14:15:00.166Z,1.47
2023-04-27T14:17:26.750Z,1.47
2023-04-27T14:19:53.013Z,1.20
2023-04-27T14:22:19.339Z,1.55
2023-04-27T14:24:45.661Z,1.47
2023-04-27T14:27:11.966Z,1.53
2023-04-27T14:29:38.227Z,1.43
2023-04-27T14:32:04.724Z,1.38
2023-04-27T14:34:30.983Z,1.17
2023-04-27T14:36:57.491Z,1.20
2023-04-27T14:39:23.820Z,1.27
2023-04-27T14:41:50.170Z,1.50
2023-04-27T14:44:16.648Z,1.23
2023-04-27T14:46:42.949Z,1.43
2023-04-27T14:49:09.284Z,1.40
2023-04-27T14:51:35.711Z,1.60
2023-04-27T14:54:03.756Z,1.23
2023-04-27T14:56:30.102Z,1.40
2023-04-27T14:58:56.362Z,1.93
2023-04-27T15:01:22.761Z,1.33
2023-04-27T15:03:51.163Z,1.20
2023-04-27T15:06:17.537Z,1.93
2023-04-27T15:08:43.813Z,1.20
2023-04-27T15:11:10.040Z,1.40
2023-04-27T15:13:36.258Z,1.73
2023-04-27T15:16:04.681Z,1.30
2023-04-27T15:18:31.069Z,2.23
2023-04-27T15:20:58.521Z,1.70
2023-04-27T15:23:25.240Z,1.70
2023-04-27T15:25:53.870Z,1.73
2023-04-27T15:28:20.086Z,1.20
2023-04-27T15:30:46.946Z,1.13
2023-04-27T15:33:14.127Z,1.47
2023-04-27T15:35:40.580Z,1.50
2023-04-27T15:38:07.681Z,1.40
2023-04-27T15:40:34.334Z,1.50
2023-04-27T15:43:01.831Z,1.40
2023-04-27T15:45:28.881Z,1.17
2023-04-27T15:47:55.337Z,1.40
2023-04-27T15:50:22.030Z,1.53
2023-04-27T15:52:48.340Z,1.50
2023-04-27T15:55:14.637Z,1.30
2023-04-27T15:57:40.936Z,1.70
2023-04-27T16:00:10.111Z,1.40
2023-04-27T16:02:37.537Z,1.30
2023-04-27T16:05:05.583Z,1.40
2023-04-27T16:07:32.973Z,1.50
2023-04-27T16:09:59.912Z,1.70
2023-04-27T16:12:26.386Z,1.20
2023-04-27T16:14:57.326Z,1.60
2023-04-27T16:17:24.349Z,1.50
2023-04-27T16:19:50.877Z,1.47
2023-04-27T16:22:17.268Z,1.63
2023-04-27T16:24:43.551Z,1.70
2023-04-27T16:27:09.850Z,1.50
2023-04-27T16:29:36.558Z,1.60
2023-04-27T16:32:02.994Z,1.83
2023-04-27T16:34:29.241Z,1.60
2023-04-27T16:36:55.530Z,1.87
2023-04-27T16:39:21.817Z,1.60
2023-04-27T16:41:48.473Z,1.80
2023-04-27T16:44:15.144Z,1.70
2023-04-27T17:14:21.222Z,1.50
2023-04-27T17:16:48.275Z,1.43
2023-04-27T17:19:14.909Z,1.50
2023-04-27T17:21:41.635Z,1.40
2023-04-27T17:24:09.666Z,1.90
2023-04-27T17:26:36.121Z,1.70
2023-04-27T17:29:02.371Z,1.67
2023-04-27T17:31:28.959Z,1.90
2023-04-27T17:33:55.350Z,2.20
2023-04-27T17:36:21.643Z,1.57
2023-04-27T17:38:48.861Z,2.10
2023-04-27T17:41:15.296Z,1.53
2023-04-27T17:43:41.955Z,1.73
2023-04-27T17:46:09.712Z,1.20
2023-04-27T17:48:36.931Z,1.63
2023-04-27T17:51:03.172Z,1.67
2023-04-27T17:53:29.453Z,1.60
2023-04-27T17:55:55.832Z,1.40
2023-04-27T17:58:22.128Z,1.50
2023-04-27T18:00:48.456Z,1.63
2023-04-27T18:03:15.050Z,1.60
2023-04-27T18:05:41.417Z,1.87
2023-04-27T18:08:07.831Z,1.67
2023-04-27T18:10:34.317Z,1.87
2023-04-27T18:13:01.470Z,1.60
2023-04-27T18:15:27.864Z,1.50
2023-04-27T18:17:54.990Z,1.60
2023-04-27T18:20:23.422Z,1.60
2023-04-27T18:22:49.893Z,1.63
2023-04-27T18:25:16.111Z,1.87
2023-04-27T18:27:43.843Z,2.00
2023-04-27T18:30:10.282Z,1.70
2023-04-27T18:32:36.649Z,1.67
2023-04-27T18:35:03.463Z,1.77
2023-04-27T18:37:29.798Z,2.10
2023-04-27T18:39:56.026Z,2.00
2023-04-27T18:42:23.429Z,1.80
2023-04-27T18:44:51.572Z,2.00
2023-04-27T18:47:17.807Z,1.50
2023-04-27T18:49:44.026Z,1.73
2023-04-27T18:52:11.427Z,2.07
2023-04-27T18:54:38.189Z,1.80
2023-04-27T18:57:04.693Z,1.83
2023-04-27T18:59:30.962Z,2.10
2023-04-27T19:01:57.284Z,1.60
2023-04-27T19:04:25.799Z,1.90
2023-04-27T19:06:52.253Z,2.20
2023-04-27T19:09:19.240Z,2.27
2023-04-27T19:11:49.448Z,2.10
2023-04-27T19:14:19.800Z,2.20
2023-04-27T19:16:46.281Z,2.40
2023-04-27T19:19:13.147Z,2.10
2023-04-27T19:21:41.818Z,2.47
2023-04-27T19:24:08.170Z,1.90
2023-04-27T19:26:34.562Z,2.03
2023-04-27T19:29:00.847Z,2.00
2023-04-27T19:31:27.360Z,2.10
2023-04-27T19:33:55.408Z,2.77
2023-04-27T19:36:22.118Z,2.23
2023-04-27T19:38:48.547Z,2.27
2023-04-27T19:41:14.922Z,2.50
2023-04-27T19:43:41.381Z,2.60
2023-04-27T19:46:07.710Z,2.40
2023-04-27T19:48:33.995Z,2.67
2023-04-27T19:51:00.593Z,2.67
2023-04-27T19:53:26.833Z,3.10
2023-04-27T19:55:53.075Z,3.23
2023-04-27T19:58:19.339Z,2.83
2023-04-27T20:00:45.586Z,2.83
2023-04-27T20:03:12.707Z,3.07
2023-04-27T20:05:39.395Z,3.10
2023-04-27T20:08:06.320Z,2.97
2023-04-27T20:10:32.958Z,3.50
2023-04-27T20:12:59.277Z,3.03
2023-04-27T20:15:25.688Z,3.40
2023-04-27T20:17:52.680Z,3.53
2023-04-27T20:20:19.236Z,3.17
2023-04-27T20:22:45.584Z,3.27
2023-04-27T20:25:13.975Z,3.10
2023-04-27T20:27:40.592Z,3.70
2023-04-27T20:30:07.321Z,3.90
2023-04-27T20:32:33.570Z,3.50
2023-04-27T20:35:01.918Z,3.77
2023-04-27T20:37:28.461Z,3.80
2023-04-27T20:39:54.753Z,3.37
2023-04-27T20:42:21.068Z,2.90
2023-04-27T20:44:48.375Z,3.60
2023-04-27T20:47:14.797Z,3.53
2023-04-27T20:49:41.455Z,4.07
2023-04-27T20:52:07.752Z,4.00
2023-04-27T20:54:34.065Z,4.43
2023-04-27T20:57:08.429Z,3.93
2023-04-27T20:59:34.782Z,4.20
2023-04-27T21:02:01.314Z,3.93
2023-04-27T21:04:27.726Z,3.70
2023-04-27T21:06:54.023Z,3.93
2023-04-27T21:09:20.369Z,4.03
2023-04-27T21:11:46.628Z,4.13
2023-04-27T21:14:12.939Z,4.40
2023-04-27T21:16:39.359Z,4.43
2023-04-27T21:19:05.651Z,4.90
2023-04-27T21:21:31.898Z,4.40
2023-04-27T21:24:07.087Z,5.30
2023-04-27T21:26:34.317Z,5.63
2023-04-27T21:29:01.352Z,4.70
2023-04-27T21:31:27.683Z,5.17
2023-04-27T21:33:53.985Z,5.33
2023-04-27T21:36:20.597Z,5.70
2023-04-27T21:38:47.229Z,5.17
2023-04-27T21:41:13.650Z,4.90
2023-04-27T21:43:42.037Z,5.57
2023-04-27T21:46:09.055Z,5.57
2023-04-27T21:48:35.723Z,6.00
2023-04-27T21:51:02.195Z,6.10
2023-04-27T21:53:29.670Z,6.00
2023-04-27T21:55:56.557Z,6.13
2023-04-27T21:58:22.806Z,6.00
2023-04-27T22:00:49.043Z,5.80
2023-04-27T22:03:15.531Z,5.87
2023-04-27T22:05:41.824Z,6.10
2023-04-27T22:08:08.689Z,6.20
2023-04-27T22:10:34.929Z,6.30
2023-04-27T22:13:08.179Z,5.67
2023-04-27T22:15:43.788Z,6.20
2023-04-27T22:18:10.122Z,5.83
2023-04-27T22:20:36.399Z,5.50
2023-04-27T22:23:02.681Z,5.80
2023-04-27T22:25:29.764Z,5.63
2023-04-27T22:27:56.260Z,5.77
2023-04-27T22:30:22.554Z,5.70
2023-04-27T22:32:48.845Z,5.80
2023-04-27T22:35:25.586Z,6.07
2023-04-27T22:37:54.217Z,5.33
2023-04-27T22:40:20.574Z,5.97
2023-04-27T22:42:46.826Z,6.00
2023-04-27T22:45:13.175Z,6.00
2023-04-27T22:47:41.241Z,6.30
2023-04-27T22:50:08.110Z,6.40
2023-04-27T22:52:34.501Z,5.70
2023-04-27T22:55:03.764Z,5.90
2023-04-27T22:57:30.337Z,5.70
2023-04-27T22:59:56.772Z,5.63
2023-04-27T23:02:23.327Z,5.87
2023-04-27T23:04:49.915Z,5.57
2023-04-27T23:07:21.559Z,5.20
2023-04-27T23:09:48.167Z,5.40
2023-04-27T23:12:14.412Z,5.23
2023-04-27T23:14:42.194Z,5.17
2023-04-27T23:17:08.795Z,5.40
2023-04-27T23:19:35.082Z,5.40
2023-04-27T23:22:01.807Z,5.53
2023-04-27T23:24:31.246Z,5.37
2023-04-27T23:26:57.620Z,5.30
2023-04-27T23:29:24.190Z,5.83
2023-04-27T23:31:50.558Z,5.17
2023-04-27T23:34:16.943Z,5.23
2023-04-27T23:36:43.620Z,5.03
2023-04-27T23:39:10.022Z,5.80
2023-04-27T23:41:37.141Z,5.30
2023-04-27T23:44:03.417Z,4.17
2023-04-27T23:46:29.914Z,5.20
2023-04-27T23:48:56.191Z,5.07
2023-04-27T23:51:22.441Z,5.10
2023-04-27T23:53:48.656Z,5.00
2023-04-27T23:56:15.650Z,5.20
2023-04-27T23:58:41.907Z,5.63
